Time,TemperatureF,DewpointF,PressureIn,WindDirection,WindDirectionDegrees,WindSpeedMPH,WindSpeedGustMPH,Humidity,HourlyPrecipIn,Conditions,Clouds,dailyrainin,SoftwareType,DateUTC
2013-08-16 00:00:00,66.0,45.1,29.66,NNW,337,10.0,19.0,47,-1.10,,,0.00,Weather View 32 v70,2013-08-16 04:00:00,
2013-08-16 00:05:00,66.0,44.0,29.65,NNW,337,13.0,19.0,45,-1.10,,,0.00,Weather View 32 v70,2013-08-16 04:05:00,
2013-08-16 00:10:00,66.0,45.7,29.65,NNW,337,10.0,19.0,48,-1.10,,,0.00,Weather View 32 v70,2013-08-16 04:10:00,
2013-08-16 00:11:00,66.0,45.7,29.65,NNW,337,10.0,19.0,48,-1.10,,,0.00,Weather View 32 v70,2013-08-16 04:11:00,
2013-08-16 00:20:00,66.0,45.7,29.64,NNW,337,3.0,18.0,48,-1.10,,,0.00,Weather View 32 v70,2013-08-16 04:20:00,
2013-08-16 00:25:00,66.0,44.6,29.64,NNW,337,7.0,18.0,46,-1.10,,,0.00,Weather View 32 v70,2013-08-16 04:25:00,
2013-08-16 00:30:00,66.0,45.7,29.64,NNW,337,9.0,18.0,48,-1.10,,,0.00,Weather View 32 v70,2013-08-16 04:30:00,
2013-08-16 00:40:00,66.0,46.2,29.65,NNW,337,12.0,18.0,49,-1.10,,,0.00,Weather View 32 v70,2013-08-16 04:40:00,
2013-08-16 00:45:00,66.0,45.1,29.63,NNW,337,6.0,16.0,47,-1.10,,,0.00,Weather View 32 v70,2013-08-16 04:45:00,
2013-08-16 00:50:00,66.0,46.2,29.63,ENE,67,12.0,16.0,49,-1.10,,,0.00,Weather View 32 v70,2013-08-16 04:50:00,
2013-08-16 00:55:00,66.0,45.1,29.63,NNW,337,12.0,16.0,47,-1.10,,,0.00,Weather View 32 v70,2013-08-16 04:55:00,
2013-08-16 01:00:00,66.0,46.2,29.63,NNW,337,10.0,16.0,49,0.00,,,0.00,Weather View 32 v70,2013-08-16 05:00:00,
2013-08-16 01:05:00,66.0,44.6,29.63,NNW,337,11.0,15.0,46,0.00,,,0.00,Weather View 32 v70,2013-08-16 05:05:00,
2013-08-16 01:10:00,66.0,45.7,29.63,NNW,337,10.0,15.0,48,0.00,,,0.00,Weather View 32 v70,2013-08-16 05:10:00,
2013-08-16 01:15:00,66.0,44.6,29.63,NNW,337,6.0,15.0,46,0.00,,,0.00,Weather View 32 v70,2013-08-16 05:15:00,
2013-08-16 01:20:00,66.0,45.1,29.63,NNW,337,6.0,15.0,47,0.00,,,0.00,Weather View 32 v70,2013-08-16 05:20:00,
2013-08-16 01:30:00,66.0,45.1,29.63,NNW,337,7.0,15.0,47,0.00,,,0.00,Weather View 32 v70,2013-08-16 05:30:00,
2013-08-16 01:35:00,66.0,43.4,29.63,NNW,337,12.0,15.0,44,0.00,,,0.00,Weather View 32 v70,2013-08-16 05:35:00,
2013-08-16 01:40:00,66.0,44.6,29.63,NNW,337,10.0,15.0,46,0.00,,,0.00,Weather View 32 v70,2013-08-16 05:40:00,
2013-08-16 01:45:00,66.0,42.8,29.62,NNW,337,11.0,15.0,43,0.00,,,0.00,Weather View 32 v70,2013-08-16 05:45:00,
2013-08-16 01:50:00,66.0,44.0,29.62,NNW,337,10.0,15.0,45,0.00,,,0.00,Weather View 32 v70,2013-08-16 05:50:00,
2013-08-16 01:55:00,66.0,42.2,29.61,NNW,337,10.0,15.0,42,0.00,,,0.00,Weather View 32 v70,2013-08-16 05:55:00,
2013-08-16 02:00:00,66.0,44.0,29.61,NNW,337,9.0,15.0,45,0.00,,,0.00,Weather View 32 v70,2013-08-16 06:00:00,
2013-08-16 02:05:00,66.0,42.2,29.62,NNW,337,9.0,15.0,42,0.00,,,0.00,Weather View 32 v70,2013-08-16 06:05:00,
2013-08-16 02:10:00,66.0,43.4,29.62,NNW,337,6.0,15.0,44,0.00,,,0.00,Weather View 32 v70,2013-08-16 06:10:00,
2013-08-16 02:20:00,66.0,42.8,29.61,NNW,337,8.0,15.0,43,0.01,,,0.01,Weather View 32 v70,2013-08-16 06:20:00,
2013-08-16 02:25:00,66.0,40.9,29.62,NNW,337,10.0,15.0,40,0.01,,,0.01,Weather View 32 v70,2013-08-16 06:25:00,
2013-08-16 02:30:00,66.0,42.2,29.62,NNW,337,5.0,15.0,42,0.02,,,0.02,Weather View 32 v70,2013-08-16 06:30:00,
2013-08-16 02:35:00,66.0,40.9,29.61,NNW,337,12.0,15.0,40,0.02,,,0.02,Weather View 32 v70,2013-08-16 06:35:00,
2013-08-16 02:40:00,66.0,42.2,29.61,NNW,337,10.0,15.0,42,0.02,,,0.02,Weather View 32 v70,2013-08-16 06:40:00,
2013-08-16 02:45:00,66.0,39.6,29.61,NNW,337,9.0,15.0,38,0.02,,,0.02,Weather View 32 v70,2013-08-16 06:45:00,
2013-08-16 02:50:00,66.0,41.6,29.61,NNW,337,10.0,15.0,41,0.02,,,0.02,Weather View 32 v70,2013-08-16 06:50:00,
2013-08-16 02:55:00,66.0,38.9,29.61,NNW,337,10.0,15.0,37,0.02,,,0.02,Weather View 32 v70,2013-08-16 06:55:00,
2013-08-16 03:00:00,66.0,40.3,29.61,NNW,337,7.0,14.0,39,0.02,,,0.02,Weather View 32 v70,2013-08-16 07:00:00,
2013-08-16 03:10:00,66.0,40.3,29.62,NNW,337,4.0,15.0,39,0.02,,,0.02,Weather View 32 v70,2013-08-16 07:10:00,
2013-08-16 03:15:00,66.0,38.2,29.60,NNW,337,15.0,15.0,36,0.02,,,0.02,Weather View 32 v70,2013-08-16 07:15:00,
2013-08-16 03:20:00,66.0,39.6,29.60,NNW,337,10.0,15.0,38,0.01,,,0.02,Weather View 32 v70,2013-08-16 07:20:00,
2013-08-16 03:25:00,66.0,38.2,29.62,NNW,337,5.0,15.0,36,0.01,,,0.02,Weather View 32 v70,2013-08-16 07:25:00,
2013-08-16 03:30:00,66.0,39.6,29.62,NNW,337,7.0,15.0,38,0.00,,,0.02,Weather View 32 v70,2013-08-16 07:30:00,
2013-08-16 03:35:00,66.0,37.5,29.60,NNW,337,10.0,15.0,35,0.04,,,0.06,Weather View 32 v70,2013-08-16 07:35:00,
2013-08-16 03:40:00,67.0,39.8,29.60,NNW,337,10.0,15.0,37,0.04,,,0.06,Weather View 32 v70,2013-08-16 07:40:00,
2013-08-16 03:45:00,66.0,37.5,29.62,NNW,337,13.0,15.0,35,0.04,,,0.06,Weather View 32 v70,2013-08-16 07:45:00,
2013-08-16 03:50:00,67.0,38.4,29.62,NNW,337,10.0,15.0,35,0.05,,,0.07,Weather View 32 v70,2013-08-16 07:50:00,
2013-08-16 03:55:00,67.0,37.6,29.59,ENE,67,12.0,15.0,34,0.05,,,0.07,Weather View 32 v70,2013-08-16 07:55:00,
2013-08-16 04:00:00,66.0,37.5,29.59,NNW,337,11.0,15.0,35,0.05,,,0.07,Weather View 32 v70,2013-08-16 08:00:00,
2013-08-16 04:05:00,67.0,35.3,29.60,ENE,67,13.0,16.0,31,0.05,,,0.07,Weather View 32 v70,2013-08-16 08:05:00,
2013-08-16 04:10:00,67.0,36.9,29.60,NNW,337,13.0,16.0,33,0.05,,,0.07,Weather View 32 v70,2013-08-16 08:10:00,
2013-08-16 04:15:00,67.0,34.5,29.59,NNW,337,12.0,16.0,30,0.05,,,0.07,Weather View 32 v70,2013-08-16 08:15:00,
2013-08-16 04:25:00,67.0,34.5,29.60,NNW,337,13.0,16.0,30,0.05,,,0.07,Weather View 32 v70,2013-08-16 08:25:00,
2013-08-16 04:30:00,67.0,37.6,29.60,NNW,337,9.0,16.0,34,0.05,,,0.07,Weather View 32 v70,2013-08-16 08:30:00,
2013-08-16 04:35:00,67.0,36.9,29.61,NNW,337,10.0,16.0,33,0.01,,,0.07,Weather View 32 v70,2013-08-16 08:35:00,
2013-08-16 04:40:00,67.0,37.6,29.61,NNW,337,8.0,16.0,34,0.01,,,0.07,Weather View 32 v70,2013-08-16 08:40:00,
2013-08-16 04:45:00,67.0,34.5,29.60,NNW,337,10.0,16.0,30,0.01,,,0.07,Weather View 32 v70,2013-08-16 08:45:00,
2013-08-16 04:50:00,67.0,37.6,29.60,NNW,337,4.0,16.0,34,0.00,,,0.07,Weather View 32 v70,2013-08-16 08:50:00,
2013-08-16 04:55:00,67.0,35.3,29.60,NNW,337,4.0,16.0,31,0.00,,,0.07,Weather View 32 v70,2013-08-16 08:55:00,
2013-08-16 05:00:00,67.0,37.6,29.60,NNW,337,10.0,16.0,34,0.02,,,0.09,Weather View 32 v70,2013-08-16 09:00:00,
2013-08-16 05:05:00,67.0,31.8,29.60,NNW,337,9.0,16.0,27,0.03,,,0.10,Weather View 32 v70,2013-08-16 09:05:00,
2013-08-16 05:14:00,67.0,33.6,29.60,NNW,337,9.0,16.0,29,0.03,,,0.10,Weather View 32 v70,2013-08-16 09:14:00,
2013-08-16 05:20:00,67.0,35.3,29.60,NNW,337,8.0,15.0,31,0.04,,,0.11,Weather View 32 v70,2013-08-16 09:20:00,
2013-08-16 05:25:00,67.0,33.6,29.60,NNW,337,7.0,15.0,29,0.04,,,0.11,Weather View 32 v70,2013-08-16 09:25:00,
2013-08-16 05:30:00,67.0,34.5,29.60,NNW,337,7.0,15.0,30,0.04,,,0.11,Weather View 32 v70,2013-08-16 09:30:00,
2013-08-16 05:35:00,67.0,31.8,29.62,NNW,337,9.0,15.0,27,0.05,,,0.12,Weather View 32 v70,2013-08-16 09:35:00,
2013-08-16 05:40:00,67.0,33.6,29.62,NNW,337,10.0,15.0,29,0.05,,,0.12,Weather View 32 v70,2013-08-16 09:40:00,
2013-08-16 05:45:00,67.0,31.8,29.63,NNW,337,7.0,15.0,27,0.05,,,0.12,Weather View 32 v70,2013-08-16 09:45:00,
2013-08-16 05:50:00,67.0,33.6,29.63,NNW,337,7.0,15.0,29,0.05,,,0.12,Weather View 32 v70,2013-08-16 09:50:00,
2013-08-16 06:00:00,67.0,32.7,29.61,NNW,337,10.0,15.0,28,0.03,,,0.12,Weather View 32 v70,2013-08-16 10:00:00,
2013-08-16 06:05:00,67.0,31.8,29.61,NNW,337,6.0,13.0,27,0.02,,,0.12,Weather View 32 v70,2013-08-16 10:05:00,
2013-08-16 06:10:00,67.0,31.8,29.61,NNW,337,6.0,13.0,27,0.02,,,0.12,Weather View 32 v70,2013-08-16 10:10:00,
2013-08-16 06:15:00,67.0,46.6,29.61,NNW,337,7.0,13.0,48,0.01,,,0.12,Weather View 32 v70,2013-08-16 10:15:00,
2013-08-16 06:25:00,67.0,46.6,29.62,NNW,337,9.0,12.0,48,0.01,,,0.12,Weather View 32 v70,2013-08-16 10:25:00,
2013-08-16 06:30:00,67.0,30.9,29.62,NNW,337,6.0,12.0,26,0.01,,,0.12,Weather View 32 v70,2013-08-16 10:30:00,
2013-08-16 06:40:00,67.0,29.9,29.62,NNW,337,9.0,14.0,25,0.00,,,0.12,Weather View 32 v70,2013-08-16 10:40:00,
2013-08-16 06:45:00,67.0,46.6,29.63,NNW,337,10.0,14.0,48,0.00,,,0.12,Weather View 32 v70,2013-08-16 10:45:00,
2013-08-16 06:50:00,67.0,29.9,29.63,NNW,337,9.0,14.0,25,0.00,,,0.12,Weather View 32 v70,2013-08-16 10:50:00,
2013-08-16 06:55:00,67.0,46.6,29.63,NNW,337,11.0,15.0,48,0.00,,,0.12,Weather View 32 v70,2013-08-16 10:55:00,
2013-08-16 07:00:00,67.0,29.9,29.63,NNW,337,13.0,16.0,25,0.00,,,0.12,Weather View 32 v70,2013-08-16 11:00:00,
2013-08-16 07:05:00,67.0,46.6,29.63,NNW,337,9.0,16.0,48,0.00,,,0.12,Weather View 32 v70,2013-08-16 11:05:00,
2013-08-16 07:10:00,67.0,28.9,29.63,ENE,67,13.0,16.0,24,0.00,,,0.12,Weather View 32 v70,2013-08-16 11:10:00,
2013-08-16 07:15:00,68.0,47.5,29.62,NNW,337,13.0,16.0,48,0.00,,,0.12,Weather View 32 v70,2013-08-16 11:15:00,
2013-08-16 07:25:00,68.0,47.5,29.63,NNW,337,10.0,16.0,48,0.00,,,0.12,Weather View 32 v70,2013-08-16 11:25:00,
2013-08-16 07:30:00,68.0,29.8,29.63,NNW,337,10.0,16.0,24,0.00,,,0.12,Weather View 32 v70,2013-08-16 11:30:00,
2013-08-16 07:35:00,68.0,47.5,29.62,NNW,337,9.0,16.0,48,0.00,,,0.12,Weather View 32 v70,2013-08-16 11:35:00,
2013-08-16 07:40:00,68.0,28.7,29.62,NNW,337,9.0,16.0,23,0.00,,,0.12,Weather View 32 v70,2013-08-16 11:40:00,
2013-08-16 07:45:00,68.0,47.5,29.63,NNW,337,2.0,16.0,48,0.00,,,0.12,Weather View 32 v70,2013-08-16 11:45:00,
2013-08-16 07:50:00,68.0,28.7,29.63,NNW,337,7.0,16.0,23,0.00,,,0.12,Weather View 32 v70,2013-08-16 11:50:00,
2013-08-16 08:00:00,68.0,28.7,29.63,NNW,337,8.0,16.0,23,0.00,,,0.12,Weather View 32 v70,2013-08-16 12:00:00,
2013-08-16 08:05:00,68.0,47.5,29.63,NNW,337,10.0,15.0,48,0.00,,,0.12,Weather View 32 v70,2013-08-16 12:05:00,
2013-08-16 08:10:00,68.0,28.7,29.63,NNW,337,10.0,15.0,23,0.00,,,0.12,Weather View 32 v70,2013-08-16 12:10:00,
2013-08-16 08:15:00,68.0,47.5,29.65,NNW,337,9.0,14.0,48,0.00,,,0.12,Weather View 32 v70,2013-08-16 12:15:00,
2013-08-16 08:20:00,68.0,28.7,29.65,NNW,337,9.0,13.0,23,0.00,,,0.12,Weather View 32 v70,2013-08-16 12:20:00,
2013-08-16 08:25:00,68.0,47.5,29.66,ENE,67,4.0,13.0,48,0.00,,,0.12,Weather View 32 v70,2013-08-16 12:25:00,
2013-08-16 08:30:00,68.0,28.7,29.66,NNW,337,7.0,13.0,23,0.00,,,0.12,Weather View 32 v70,2013-08-16 12:30:00,
2013-08-16 08:40:00,68.0,28.7,29.64,NNW,337,7.0,14.0,23,0.00,,,0.12,Weather View 32 v70,2013-08-16 12:40:00,
2013-08-16 08:45:00,69.0,48.4,29.64,NNW,337,9.0,14.0,48,0.00,,,0.12,Weather View 32 v70,2013-08-16 12:45:00,
2013-08-16 08:50:00,69.0,30.6,29.64,NNW,337,9.0,14.0,24,0.00,,,0.12,Weather View 32 v70,2013-08-16 12:50:00,
2013-08-16 08:55:00,69.0,48.4,29.66,NNW,337,10.0,14.0,48,0.00,,,0.12,Weather View 32 v70,2013-08-16 12:55:00,
2013-08-16 09:00:00,68.0,29.8,29.66,NNW,337,6.0,14.0,24,0.00,,,0.12,Weather View 32 v70,2013-08-16 13:00:00,
2013-08-16 09:05:00,69.0,48.4,29.64,NNW,337,10.0,14.0,48,0.00,,,0.12,Weather View 32 v70,2013-08-16 13:05:00,
2013-08-16 09:10:00,69.0,30.6,29.64,NNW,337,9.0,14.0,24,0.00,,,0.12,Weather View 32 v70,2013-08-16 13:10:00,
2013-08-16 09:15:00,69.0,49.0,29.64,NNW,337,11.0,14.0,49,0.00,,,0.12,Weather View 32 v70,2013-08-16 13:15:00,
2013-08-16 09:25:00,69.0,49.5,29.64,NNW,337,13.0,14.0,50,0.00,,,0.12,Weather View 32 v70,2013-08-16 13:25:00,
2013-08-16 09:30:00,69.0,35.3,29.64,ENE,67,12.0,14.0,29,0.00,,,0.12,Weather View 32 v70,2013-08-16 13:30:00,
2013-08-16 09:35:00,69.0,50.1,29.63,ENE,67,13.0,16.0,51,0.00,,,0.12,Weather View 32 v70,2013-08-16 13:35:00,
2013-08-16 09:40:00,69.0,41.6,29.63,ENE,67,16.0,16.0,37,0.00,,,0.12,Weather View 32 v70,2013-08-16 13:40:00,
2013-08-16 09:45:00,70.0,51.5,29.65,ENE,67,13.0,19.0,52,0.00,,,0.12,Weather View 32 v70,2013-08-16 13:45:00,
2013-08-16 09:50:00,70.0,45.8,29.65,ENE,67,16.0,19.0,42,0.00,,,0.12,Weather View 32 v70,2013-08-16 13:50:00,
2013-08-16 09:55:00,70.0,52.0,29.63,NNW,337,8.0,19.0,53,0.00,,,0.12,Weather View 32 v70,2013-08-16 13:55:00,
2013-08-16 10:00:00,70.0,48.2,29.63,NNW,337,15.0,19.0,46,0.00,,,0.12,Weather View 32 v70,2013-08-16 14:00:00,
2013-08-16 10:05:00,70.0,52.5,29.64,NNW,337,11.0,19.0,54,0.00,,,0.12,Weather View 32 v70,2013-08-16 14:05:00,
2013-08-16 10:15:00,70.0,53.0,29.65,ENE,67,14.0,19.0,55,0.00,,,0.12,Weather View 32 v70,2013-08-16 14:15:00,
2013-08-16 10:20:00,70.0,49.4,29.65,ENE,67,15.0,19.0,48,0.00,,,0.12,Weather View 32 v70,2013-08-16 14:20:00,
2013-08-16 10:25:00,71.0,54.0,29.63,ENE,67,10.0,19.0,55,0.00,,,0.12,Weather View 32 v70,2013-08-16 14:25:00,
2013-08-16 10:30:00,71.0,50.3,29.63,ENE,67,14.0,19.0,48,0.00,,,0.12,Weather View 32 v70,2013-08-16 14:30:00,
2013-08-16 10:35:00,71.0,54.0,29.65,ENE,67,14.0,19.0,55,0.00,,,0.12,Weather View 32 v70,2013-08-16 14:35:00,
2013-08-16 10:40:00,71.0,50.8,29.65,ENE,67,13.0,19.0,49,0.00,,,0.12,Weather View 32 v70,2013-08-16 14:40:00,
2013-08-16 10:45:00,71.0,54.5,29.65,ENE,67,10.0,19.0,56,0.00,,,0.12,Weather View 32 v70,2013-08-16 14:45:00,
2013-08-16 10:50:00,71.0,51.4,29.65,ENE,67,13.0,19.0,50,0.00,,,0.12,Weather View 32 v70,2013-08-16 14:50:00,
2013-08-16 11:00:00,71.0,51.4,29.65,ENE,67,14.0,18.0,50,0.00,,,0.12,Weather View 32 v70,2013-08-16 15:00:00,
2013-08-16 11:05:00,72.0,55.9,29.65,ENE,67,11.0,18.0,57,0.00,,,0.12,Weather View 32 v70,2013-08-16 15:05:00,
2013-08-16 11:10:00,71.0,51.9,29.65,ENE,67,14.0,18.0,51,0.00,,,0.12,Weather View 32 v70,2013-08-16 15:10:00,
2013-08-16 11:15:00,71.0,55.4,29.64,ENE,67,15.0,19.0,58,0.00,,,0.12,Weather View 32 v70,2013-08-16 15:15:00,
2013-08-16 11:20:00,71.0,51.9,29.64,ENE,67,14.0,19.0,51,0.00,,,0.12,Weather View 32 v70,2013-08-16 15:20:00,
2013-08-16 11:25:00,72.0,56.4,29.65,ENE,67,13.0,19.0,58,0.00,,,0.12,Weather View 32 v70,2013-08-16 15:25:00,
2013-08-16 11:30:00,71.0,51.9,29.65,ENE,67,12.0,20.0,51,0.00,,,0.12,Weather View 32 v70,2013-08-16 15:30:00,
2013-08-16 11:35:00,71.0,55.4,29.65,ENE,67,15.0,20.0,58,0.00,,,0.12,Weather View 32 v70,2013-08-16 15:35:00,
2013-08-16 11:40:00,72.0,52.8,29.65,ENE,67,12.0,20.0,51,0.00,,,0.12,Weather View 32 v70,2013-08-16 15:40:00,
2013-08-16 11:50:00,71.0,52.4,29.66,ENE,67,12.0,20.0,52,0.00,,,0.12,Weather View 32 v70,2013-08-16 15:50:00,
2013-08-16 11:55:00,72.0,56.4,29.64,ENE,67,16.0,20.0,58,0.00,,,0.12,Weather View 32 v70,2013-08-16 15:55:00,
2013-08-16 12:00:00,72.0,53.9,29.64,ENE,67,16.0,20.0,53,0.00,,,0.12,Weather View 32 v70,2013-08-16 16:00:00,
2013-08-16 12:05:00,72.0,57.3,29.62,ENE,67,16.0,20.0,60,0.00,,,0.12,Weather View 32 v70,2013-08-16 16:05:00,
2013-08-16 12:10:00,72.0,53.9,29.62,ENE,67,13.0,20.0,53,0.00,,,0.12,Weather View 32 v70,2013-08-16 16:10:00,
2013-08-16 12:15:00,72.0,56.8,29.63,ENE,67,13.0,20.0,59,0.00,,,0.12,Weather View 32 v70,2013-08-16 16:15:00,
2013-08-16 12:20:00,72.0,53.9,29.63,ENE,67,15.0,20.0,53,0.00,,,0.12,Weather View 32 v70,2013-08-16 16:20:00,
2013-08-16 12:25:00,72.0,57.3,29.64,ENE,67,17.0,20.0,60,0.00,,,0.12,Weather View 32 v70,2013-08-16 16:25:00,
2013-08-16 12:35:00,72.0,56.8,29.63,ENE,67,13.0,19.0,59,0.00,,,0.12,Weather View 32 v70,2013-08-16 16:35:00,
2013-08-16 12:40:00,72.0,53.9,29.63,ENE,67,14.0,19.0,53,0.00,,,0.12,Weather View 32 v70,2013-08-16 16:40:00,
2013-08-16 12:45:00,72.0,57.3,29.63,ENE,67,14.0,19.0,60,0.00,,,0.12,Weather View 32 v70,2013-08-16 16:45:00,
2013-08-16 12:55:00,72.0,57.3,29.64,ENE,67,11.0,19.0,60,0.00,,,0.12,Weather View 32 v70,2013-08-16 16:55:00,
2013-08-16 13:00:00,72.0,53.9,29.64,ENE,67,8.0,19.0,53,0.00,,,0.12,Weather View 32 v70,2013-08-16 17:00:00,
2013-08-16 13:05:00,72.0,57.3,29.63,ENE,67,13.0,17.0,60,0.00,,,0.12,Weather View 32 v70,2013-08-16 17:05:00,
2013-08-16 13:10:00,72.0,53.9,29.63,NNW,337,9.0,17.0,53,0.00,,,0.12,Weather View 32 v70,2013-08-16 17:10:00,
2013-08-16 13:18:00,72.0,57.3,29.63,NNW,337,12.0,17.0,60,0.00,,,0.12,Weather View 32 v70,2013-08-16 17:18:00,
2013-08-16 13:25:00,73.0,58.7,29.63,NNW,337,9.0,17.0,61,0.00,,,0.12,Weather View 32 v70,2013-08-16 17:25:00,
2013-08-16 13:30:00,73.0,55.8,29.63,ENE,67,10.0,16.0,55,0.00,,,0.12,Weather View 32 v70,2013-08-16 17:30:00,
2013-08-16 13:35:00,73.0,58.7,29.61,NNW,337,10.0,16.0,61,0.00,,,0.12,Weather View 32 v70,2013-08-16 17:35:00,
2013-08-16 13:40:00,73.0,55.8,29.61,NNW,337,10.0,15.0,55,0.00,,,0.12,Weather View 32 v70,2013-08-16 17:40:00,
2013-08-16 13:45:00,73.0,58.7,29.64,NNW,337,11.0,15.0,61,0.00,,,0.12,Weather View 32 v70,2013-08-16 17:45:00,
2013-08-16 13:50:00,73.0,55.3,29.64,NNW,337,9.0,15.0,54,0.00,,,0.12,Weather View 32 v70,2013-08-16 17:50:00,
2013-08-16 13:55:00,73.0,58.7,29.61,NNW,337,8.0,15.0,61,0.00,,,0.12,Weather View 32 v70,2013-08-16 17:55:00,
2013-08-16 14:05:00,73.0,58.7,29.61,NNW,337,10.0,15.0,61,0.00,,,0.12,Weather View 32 v70,2013-08-16 18:05:00,
2013-08-16 14:10:00,73.0,55.8,29.61,NNW,337,11.0,15.0,55,0.00,,,0.12,Weather View 32 v70,2013-08-16 18:10:00,
2013-08-16 14:15:00,73.0,58.7,29.61,NNW,337,12.0,15.0,61,0.00,,,0.12,Weather View 32 v70,2013-08-16 18:15:00,
2013-08-16 14:20:00,73.0,55.8,29.61,NNW,337,14.0,15.0,55,0.00,,,0.12,Weather View 32 v70,2013-08-16 18:20:00,
2013-08-16 14:25:00,73.0,58.7,29.61,NNW,337,13.0,15.0,61,0.00,,,0.12,Weather View 32 v70,2013-08-16 18:25:00,
2013-08-16 14:30:00,73.0,55.3,29.61,NNW,337,7.0,15.0,54,0.00,,,0.12,Weather View 32 v70,2013-08-16 18:30:00,
2013-08-16 14:35:00,73.0,58.7,29.63,NNW,337,13.0,15.0,61,0.00,,,0.12,Weather View 32 v70,2013-08-16 18:35:00,
2013-08-16 14:40:00,73.0,55.8,29.63,NNW,337,12.0,15.0,55,0.00,,,0.12,Weather View 32 v70,2013-08-16 18:40:00,
2013-08-16 14:45:00,73.0,58.7,29.63,ENE,67,13.0,15.0,61,0.00,,,0.12,Weather View 32 v70,2013-08-16 18:45:00,
2013-08-16 14:55:00,73.0,58.7,29.60,ENE,67,12.0,17.0,61,0.00,,,0.12,Weather View 32 v70,2013-08-16 18:55:00,
2013-08-16 15:00:00,73.0,55.8,29.60,ENE,67,14.0,17.0,55,0.00,,,0.12,Weather View 32 v70,2013-08-16 19:00:00,
2013-08-16 15:05:00,73.0,59.2,29.60,ENE,67,15.0,17.0,62,0.00,,,0.12,Weather View 32 v70,2013-08-16 19:05:00,
2013-08-16 15:10:00,73.0,55.8,29.60,ENE,67,13.0,17.0,55,0.00,,,0.12,Weather View 32 v70,2013-08-16 19:10:00,
2013-08-16 15:15:00,73.0,58.7,29.62,ENE,67,12.0,17.0,61,0.00,,,0.12,Weather View 32 v70,2013-08-16 19:15:00,
2013-08-16 15:20:00,73.0,55.8,29.62,ENE,67,14.0,17.0,55,0.00,,,0.12,Weather View 32 v70,2013-08-16 19:20:00,
2013-08-16 15:25:00,73.0,59.2,29.60,ENE,67,14.0,17.0,62,0.00,,,0.12,Weather View 32 v70,2013-08-16 19:25:00,
2013-08-16 15:30:00,73.0,56.3,29.60,ENE,67,12.0,17.0,56,0.00,,,0.12,Weather View 32 v70,2013-08-16 19:30:00,
2013-08-16 15:40:00,73.0,55.8,29.62,ENE,67,13.0,17.0,55,0.00,,,0.12,Weather View 32 v70,2013-08-16 19:40:00,
2013-08-16 15:45:00,73.0,58.7,29.60,ENE,67,12.0,17.0,61,0.00,,,0.12,Weather View 32 v70,2013-08-16 19:45:00,
2013-08-16 15:50:00,73.0,55.8,29.60,ENE,67,8.0,17.0,55,0.00,,,0.12,Weather View 32 v70,2013-08-16 19:50:00,
2013-08-16 15:55:00,73.0,58.7,29.62,NNW,337,12.0,17.0,61,0.00,,,0.12,Weather View 32 v70,2013-08-16 19:55:00,
2013-08-16 16:00:00,73.0,55.8,29.62,NNW,337,6.0,17.0,55,0.00,,,0.12,Weather View 32 v70,2013-08-16 20:00:00,
2013-08-16 16:05:00,73.0,58.7,29.61,NNW,337,13.0,17.0,61,0.00,,,0.12,Weather View 32 v70,2013-08-16 20:05:00,
2013-08-16 16:10:00,73.0,55.3,29.61,NNW,337,10.0,16.0,54,0.00,,,0.12,Weather View 32 v70,2013-08-16 20:10:00,
2013-08-16 16:15:00,73.0,58.7,29.61,NNW,337,12.0,16.0,61,0.00,,,0.12,Weather View 32 v70,2013-08-16 20:15:00,
2013-08-16 16:20:00,73.0,55.3,29.61,NNW,337,12.0,17.0,54,0.00,,,0.12,Weather View 32 v70,2013-08-16 20:20:00,
2013-08-16 16:30:00,73.0,55.8,29.63,ENE,67,15.0,17.0,55,0.00,,,0.12,Weather View 32 v70,2013-08-16 20:30:00,
2013-08-16 16:40:00,73.0,55.8,29.62,ENE,67,14.0,18.0,55,0.00,,,0.12,Weather View 32 v70,2013-08-16 20:40:00,
2013-08-16 16:45:00,73.0,58.7,29.59,ENE,67,17.0,18.0,61,0.00,,,0.12,Weather View 32 v70,2013-08-16 20:45:00,
2013-08-16 16:50:00,73.0,55.8,29.59,ENE,67,14.0,19.0,55,0.00,,,0.12,Weather View 32 v70,2013-08-16 20:50:00,
2013-08-16 16:55:00,73.0,58.7,29.62,ENE,67,15.0,19.0,61,0.00,,,0.12,Weather View 32 v70,2013-08-16 20:55:00,
2013-08-16 17:00:00,72.0,54.4,29.62,NNW,337,15.0,19.0,54,0.00,,,0.12,Weather View 32 v70,2013-08-16 21:00:00,
2013-08-16 17:05:00,73.0,58.2,29.63,NNW,337,9.0,19.0,60,0.00,,,0.12,Weather View 32 v70,2013-08-16 21:05:00,
2013-08-16 17:10:00,73.0,54.8,29.63,NNW,337,10.0,19.0,53,0.00,,,0.12,Weather View 32 v70,2013-08-16 21:10:00,
2013-08-16 17:20:00,72.0,53.9,29.61,NNW,337,3.0,19.0,53,0.00,,,0.12,Weather View 32 v70,2013-08-16 21:20:00,
2013-08-16 17:25:00,72.0,57.3,29.61,NNW,337,10.0,19.0,60,0.00,,,0.12,Weather View 32 v70,2013-08-16 21:25:00,
2013-08-16 17:30:00,72.0,53.9,29.61,NNW,337,13.0,19.0,53,0.00,,,0.12,Weather View 32 v70,2013-08-16 21:30:00,
2013-08-16 17:35:00,72.0,57.3,29.61,ENE,67,16.0,19.0,60,0.00,,,0.12,Weather View 32 v70,2013-08-16 21:35:00,
2013-08-16 17:40:00,72.0,53.4,29.61,ENE,67,13.0,19.0,52,0.00,,,0.12,Weather View 32 v70,2013-08-16 21:40:00,
2013-08-16 17:45:00,72.0,56.8,29.61,ENE,67,12.0,19.0,59,0.00,,,0.12,Weather View 32 v70,2013-08-16 21:45:00,
2013-08-16 17:50:00,72.0,53.9,29.61,ENE,67,16.0,19.0,53,0.00,,,0.12,Weather View 32 v70,2013-08-16 21:50:00,
2013-08-16 18:00:00,72.0,53.9,29.62,ENE,67,13.0,19.0,53,0.00,,,0.12,Weather View 32 v70,2013-08-16 22:00:00,
2013-08-16 18:10:00,72.0,54.4,29.61,ENE,67,15.0,19.0,54,0.00,,,0.12,Weather View 32 v70,2013-08-16 22:10:00,
2013-08-16 18:15:00,72.0,57.8,29.62,ENE,67,15.0,19.0,61,0.00,,,0.12,Weather View 32 v70,2013-08-16 22:15:00,
2013-08-16 18:20:00,73.0,55.3,29.62,ENE,67,13.0,19.0,54,0.00,,,0.12,Weather View 32 v70,2013-08-16 22:20:00,
2013-08-16 18:25:00,73.0,58.7,29.60,ENE,67,15.0,19.0,61,0.00,,,0.12,Weather View 32 v70,2013-08-16 22:25:00,
2013-08-16 18:30:00,73.0,54.8,29.60,ENE,67,13.0,19.0,53,0.00,,,0.12,Weather View 32 v70,2013-08-16 22:30:00,
2013-08-16 18:35:00,72.0,57.8,29.61,ENE,67,17.0,19.0,61,0.00,,,0.12,Weather View 32 v70,2013-08-16 22:35:00,
2013-08-16 18:40:00,72.0,54.4,29.61,ENE,67,16.0,20.0,54,0.00,,,0.12,Weather View 32 v70,2013-08-16 22:40:00,
2013-08-16 18:45:00,72.0,57.3,29.63,ENE,67,16.0,20.0,60,0.00,,,0.12,Weather View 32 v70,2013-08-16 22:45:00,
2013-08-16 18:50:00,72.0,53.9,29.63,ENE,67,15.0,20.0,53,0.00,,,0.12,Weather View 32 v70,2013-08-16 22:50:00,
2013-08-16 19:00:00,72.0,53.4,29.61,NNW,337,13.0,20.0,52,0.00,,,0.12,Weather View 32 v70,2013-08-16 23:00:00,
2013-08-16 19:05:00,72.0,56.8,29.63,NNW,337,7.0,20.0,59,0.00,,,0.12,Weather View 32 v70,2013-08-16 23:05:00,
2013-08-16 19:10:00,72.0,52.8,29.63,NNW,337,6.0,20.0,51,0.01,,,0.13,Weather View 32 v70,2013-08-16 23:10:00,
2013-08-16 19:15:00,71.0,55.4,29.63,NNW,337,7.0,20.0,58,0.04,,,0.16,Weather View 32 v70,2013-08-16 23:15:00,
2013-08-16 19:20:00,71.0,51.4,29.63,NNW,337,6.0,20.0,50,0.07,,,0.19,Weather View 32 v70,2013-08-16 23:20:00,
2013-08-16 19:25:00,71.0,55.0,29.63,NNW,337,9.0,20.0,57,0.08,,,0.20,Weather View 32 v70,2013-08-16 23:25:00,
2013-08-16 19:30:00,71.0,50.3,29.63,NNW,337,10.0,20.0,48,0.08,,,0.20,Weather View 32 v70,2013-08-16 23:30:00,
2013-08-16 19:35:00,71.0,54.5,29.63,NNW,337,7.0,20.0,56,0.08,,,0.20,Weather View 32 v70,2013-08-16 23:35:00,
2013-08-16 19:45:00,71.0,53.5,29.63,NNW,337,6.0,19.0,54,0.08,,,0.20,Weather View 32 v70,2013-08-16 23:45:00,
2013-08-16 19:50:00,71.0,48.5,29.63,NNW,337,9.0,17.0,45,0.08,,,0.20,Weather View 32 v70,2013-08-16 23:50:00,
2013-08-16 19:55:00,71.0,53.0,29.63,NNW,337,3.0,15.0,53,0.08,,,0.20,Weather View 32 v70,2013-08-16 23:55:00,
2013-08-16 20:00:00,71.0,47.9,29.63,NNW,337,9.0,15.0,44,0.08,,,0.20,Weather View 32 v70,2013-08-17 00:00:00,
2013-08-16 20:05:00,71.0,53.0,29.63,NNW,337,9.0,15.0,53,0.08,,,0.20,Weather View 32 v70,2013-08-17 00:05:00,
2013-08-16 20:10:00,71.0,46.7,29.63,NNW,337,9.0,12.0,42,0.07,,,0.20,Weather View 32 v70,2013-08-17 00:10:00,
2013-08-16 20:15:00,71.0,51.9,29.64,NNW,337,9.0,15.0,51,0.04,,,0.20,Weather View 32 v70,2013-08-17 00:15:00,
2013-08-16 20:20:00,70.0,45.2,29.64,NNW,337,9.0,15.0,41,0.01,,,0.20,Weather View 32 v70,2013-08-17 00:20:00,
2013-08-16 20:25:00,70.0,50.5,29.65,NNW,337,13.0,15.0,50,0.01,,,0.21,Weather View 32 v70,2013-08-17 00:25:00,
2013-08-16 20:30:00,70.0,43.8,29.65,NNW,337,9.0,15.0,39,0.01,,,0.21,Weather View 32 v70,2013-08-17 00:30:00,
2013-08-16 20:40:00,70.0,43.2,29.65,NNW,337,6.0,15.0,38,0.01,,,0.21,Weather View 32 v70,2013-08-17 00:40:00,
2013-08-16 20:45:00,70.0,50.5,29.63,NNW,337,12.0,15.0,50,0.01,,,0.21,Weather View 32 v70,2013-08-17 00:45:00,
2013-08-16 20:50:00,70.0,42.5,29.63,NNW,337,10.0,15.0,37,0.01,,,0.21,Weather View 32 v70,2013-08-17 00:50:00,
2013-08-16 20:55:00,70.0,49.9,29.64,NNW,337,9.0,15.0,49,0.01,,,0.21,Weather View 32 v70,2013-08-17 00:55:00,
2013-08-16 21:00:00,70.0,41.0,29.64,NNW,337,10.0,15.0,35,0.01,,,0.21,Weather View 32 v70,2013-08-17 01:00:00,
2013-08-16 21:05:00,70.0,50.5,29.65,ENE,67,12.0,15.0,50,0.01,,,0.21,Weather View 32 v70,2013-08-17 01:05:00,
2013-08-16 21:10:00,70.0,40.3,29.65,ENE,67,12.0,15.0,34,0.01,,,0.21,Weather View 32 v70,2013-08-17 01:10:00,
2013-08-16 21:15:00,70.0,50.5,29.65,ENE,67,10.0,15.0,50,0.01,,,0.21,Weather View 32 v70,2013-08-17 01:15:00,
2013-08-16 21:20:00,70.0,40.3,29.65,ENE,67,12.0,15.0,34,0.01,,,0.21,Weather View 32 v70,2013-08-17 01:20:00,
2013-08-16 21:30:00,70.0,40.3,29.66,ENE,67,10.0,15.0,34,0.00,,,0.21,Weather View 32 v70,2013-08-17 01:30:00,
2013-08-16 21:35:00,70.0,50.5,29.65,ENE,67,10.0,15.0,50,0.00,,,0.21,Weather View 32 v70,2013-08-17 01:35:00,
2013-08-16 21:40:00,70.0,42.5,29.65,ENE,67,14.0,16.0,37,0.00,,,0.21,Weather View 32 v70,2013-08-17 01:40:00,
2013-08-16 21:45:00,71.0,52.4,29.65,ENE,67,12.0,17.0,52,0.00,,,0.21,Weather View 32 v70,2013-08-17 01:45:00,
2013-08-16 21:50:00,71.0,46.7,29.65,ENE,67,13.0,17.0,42,0.00,,,0.21,Weather View 32 v70,2013-08-17 01:50:00,
2013-08-16 21:55:00,71.0,54.0,29.65,ENE,67,17.0,20.0,55,0.00,,,0.21,Weather View 32 v70,2013-08-17 01:55:00,
2013-08-16 22:00:00,71.0,49.1,29.65,ENE,67,15.0,20.0,46,0.00,,,0.21,Weather View 32 v70,2013-08-17 02:00:00,
2013-08-16 22:10:00,71.0,49.7,29.65,ENE,67,13.0,20.0,47,0.00,,,0.21,Weather View 32 v70,2013-08-17 02:10:00,
2013-08-16 22:15:00,72.0,55.4,29.63,ENE,67,13.0,20.0,56,0.00,,,0.21,Weather View 32 v70,2013-08-17 02:15:00,
2013-08-16 22:20:00,72.0,51.2,29.63,ENE,67,12.0,20.0,48,0.00,,,0.21,Weather View 32 v70,2013-08-17 02:20:00,
2013-08-16 22:25:00,72.0,55.4,29.64,ENE,67,12.0,20.0,56,0.00,,,0.21,Weather View 32 v70,2013-08-17 02:25:00,
2013-08-16 22:30:00,72.0,51.2,29.64,ENE,67,13.0,20.0,48,0.00,,,0.21,Weather View 32 v70,2013-08-17 02:30:00,
2013-08-16 22:35:00,72.0,55.4,29.64,ENE,67,13.0,20.0,56,0.00,,,0.21,Weather View 32 v70,2013-08-17 02:35:00,
2013-08-16 22:40:00,72.0,51.2,29.64,ENE,67,14.0,20.0,48,0.00,,,0.21,Weather View 32 v70,2013-08-17 02:40:00,
2013-08-16 22:45:00,72.0,55.9,29.65,ENE,67,14.0,20.0,57,0.00,,,0.21,Weather View 32 v70,2013-08-17 02:45:00,
2013-08-16 22:50:00,72.0,51.7,29.65,ENE,67,12.0,20.0,49,0.00,,,0.21,Weather View 32 v70,2013-08-17 02:50:00,
2013-08-16 22:55:00,72.0,55.9,29.63,ENE,67,15.0,20.0,57,0.00,,,0.21,Weather View 32 v70,2013-08-17 02:55:00,
2013-08-16 23:05:00,72.0,55.4,29.64,NNW,337,7.0,18.0,56,0.00,,,0.21,Weather View 32 v70,2013-08-17 03:05:00,
2013-08-16 23:10:00,71.0,50.3,29.64,NNW,337,11.0,18.0,48,0.00,,,0.21,Weather View 32 v70,2013-08-17 03:10:00,
2013-08-16 23:15:00,71.0,54.5,29.65,NNW,337,3.0,18.0,56,0.00,,,0.21,Weather View 32 v70,2013-08-17 03:15:00,
2013-08-16 23:20:00,70.0,48.2,29.65,NNW,337,9.0,18.0,46,0.00,,,0.21,Weather View 32 v70,2013-08-17 03:20:00,
2013-08-16 23:25:00,70.0,53.0,29.65,NNW,337,10.0,18.0,55,0.00,,,0.21,Weather View 32 v70,2013-08-17 03:25:00,
2013-08-16 23:30:00,70.0,47.6,29.65,NNW,337,10.0,18.0,45,0.00,,,0.21,Weather View 32 v70,2013-08-17 03:30:00,
2013-08-16 23:35:00,70.0,52.5,29.65,NNW,337,11.0,18.0,54,0.00,,,0.21,Weather View 32 v70,2013-08-17 03:35:00,
2013-08-16 23:40:00,69.0,46.1,29.65,NNW,337,11.0,18.0,44,0.00,,,0.21,Weather View 32 v70,2013-08-17 03:40:00,
2013-08-16 23:45:00,69.0,51.1,29.66,NNW,337,10.0,18.0,53,0.00,,,0.21,Weather View 32 v70,2013-08-17 03:45:00,
2013-08-16 23:55:00,69.0,50.6,29.67,NNW,337,10.0,16.0,52,0.00,,,0.21,Weather View 32 v70,2013-08-17 03:55:00,